Time;durP1;ratioP1;P1;durP2;ratioP2;P2;SDS_P1;SDS_P2;PMS_P1;PMS_P2;Temp;Humidity;BMP_temperature;BMP_pressure;BME280_temperature;BME280_humidity;BME280_pressure;Samples;Min_cycle;Max_cycle;Signal;HPM_P1;HPM_P2
2023/04/07 00:01:47;;;;;;;34.25;22.42;;;8.20;99.90;;;;;;5090233;28;20530;-76
2023/04/07 00:04:13;;;;;;;33.53;21.75;;;8.20;99.90;;;;;;5086378;28;20242;-75
2023/04/07 00:06:39;;;;;;;31.05;21.95;;;8.20;99.90;;;;;;5087434;28;20202;-76
2023/04/07 00:09:05;;;;;;;32.08;21.65;;;8.20;99.90;;;;;;5093357;28;20206;-75
2023/04/07 00:11:31;;;;;;;37.08;24.30;;;8.30;99.90;;;;;;5091831;28;20258;-75
2023/04/07 00:13:56;;;;;;;36.15;24.42;;;8.30;99.90;;;;;;5093828;28;20264;-76
2023/04/07 00:16:22;;;;;;;33.83;23.17;;;8.20;99.90;;;;;;5088245;28;20190;-78
2023/04/07 00:18:48;;;;;;;32.78;23.42;;;8.30;99.90;;;;;;5093443;28;20182;-76
2023/04/07 00:21:14;;;;;;;35.15;24.77;;;8.20;99.90;;;;;;5092253;28;20181;-78
2023/04/07 00:23:39;;;;;;;36.40;24.35;;;8.20;99.90;;;;;;5091776;28;20205;-76
2023/04/07 00:26:05;;;;;;;34.75;24.17;;;8.30;99.90;;;;;;5091306;28;20228;-79
2023/04/07 00:28:31;;;;;;;35.55;24.70;;;8.30;99.90;;;;;;5074245;28;20182;-75
2023/04/07 00:30:57;;;;;;;35.60;25.38;;;8.20;99.90;;;;;;5091402;28;20237;-77
2023/04/07 00:33:23;;;;;;;34.83;24.80;;;8.20;99.90;;;;;;5074013;28;20193;-77
2023/04/07 00:35:48;;;;;;;39.20;25.13;;;8.20;99.90;;;;;;5075046;28;20190;-76
2023/04/07 00:38:14;;;;;;;35.17;24.75;;;8.20;99.90;;;;;;5089482;28;20194;-75
2023/04/07 00:40:40;;;;;;;36.40;24.98;;;8.20;99.90;;;;;;5093237;28;20189;-76
2023/04/07 00:43:06;;;;;;;36.60;25.17;;;8.20;99.90;;;;;;5091019;28;20190;-76
2023/04/07 00:45:31;;;;;;;38.17;24.98;;;8.20;99.90;;;;;;5093355;28;20188;-76
2023/04/07 00:47:57;;;;;;;38.78;26.40;;;8.20;99.90;;;;;;5089000;28;20589;-75
2023/04/07 00:50:23;;;;;;;37.58;25.65;;;8.20;99.90;;;;;;5091984;28;20555;-76
2023/04/07 00:52:50;;;;;;;41.00;26.58;;;8.20;99.90;;;;;;5068953;28;20239;-76
2023/04/07 00:55:16;;;;;;;36.45;26.48;;;8.20;99.90;;;;;;5093186;28;20261;-75
2023/04/07 00:57:41;;;;;;;36.92;25.67;;;8.20;99.90;;;;;;5088179;28;20277;-76
2023/04/07 01:00:09;;;;;;;39.97;26.02;;;8.20;99.90;;;;;;5093003;28;20186;-76
2023/04/07 01:02:46;;;;;;;37.05;25.58;;;8.20;99.90;;;;;;5066401;28;20255;-75
2023/04/07 01:05:17;;;;;;;38.90;26.25;;;8.20;99.90;;;;;;5086246;28;20659;-76
2023/04/07 01:07:55;;;;;;;37.33;25.75;;;8.20;99.90;;;;;;5079613;28;20182;-79
2023/04/07 01:10:32;;;;;;;38.67;25.98;;;8.10;99.90;;;;;;5091366;28;20205;-76
2023/04/07 01:13:09;;;;;;;39.30;26.65;;;8.10;99.90;;;;;;5084023;28;20239;-76
2023/04/07 01:15:38;;;;;;;41.20;26.95;;;8.10;99.90;;;;;;5087273;28;20256;-75
2023/04/07 01:18:14;;;;;;;39.17;26.98;;;8.10;99.90;;;;;;5073407;28;20277;-75
2023/04/07 01:20:43;;;;;;;41.72;26.63;;;8.20;99.90;;;;;;5073592;28;20185;-76
2023/04/07 01:23:20;;;;;;;38.03;25.50;;;8.20;99.90;;;;;;5091730;28;20666;-77
2023/04/07 01:26:03;;;;;;;41.17;26.58;;;8.20;99.90;;;;;;5085834;28;20543;-76
2023/04/07 01:28:47;;;;;;;39.78;28.52;;;8.10;99.90;;;;;;5092884;28;20177;-75
2023/04/07 01:31:14;;;;;;;40.80;27.90;;;8.10;99.90;;;;;;5078571;28;20569;-76
2023/04/07 01:33:43;;;;;;;42.60;28.15;;;8.10;99.90;;;;;;5086109;28;20191;-75
2023/04/07 01:36:10;;;;;;;44.67;28.73;;;8.10;99.90;;;;;;5087666;28;20178;-80
2023/04/07 01:38:37;;;;;;;42.45;28.75;;;8.10;99.90;;;;;;5082491;28;20239;-76
2023/04/07 01:41:04;;;;;;;40.75;28.45;;;8.10;99.90;;;;;;5096286;28;20705;-75
2023/04/07 01:43:31;;;;;;;41.22;27.83;;;8.10;99.90;;;;;;5095675;28;20185;-75
2023/04/07 01:45:57;;;;;;;46.70;30.10;;;8.10;99.90;;;;;;5095151;28;20622;-75
2023/04/07 01:48:24;;;;;;;43.67;29.05;;;8.00;99.90;;;;;;5093384;28;20178;-75
2023/04/07 01:50:51;;;;;;;43.47;29.23;;;8.00;99.90;;;;;;5090890;28;20257;-75
2023/04/07 01:53:17;;;;;;;44.95;31.52;;;8.00;99.90;;;;;;5086410;28;20186;-75
2023/04/07 01:55:43;;;;;;;45.40;30.08;;;8.00;99.90;;;;;;5095972;28;20206;-76
2023/04/07 01:58:09;;;;;;;47.47;31.08;;;8.00;99.90;;;;;;5089237;28;20208;-75
2023/04/07 02:00:39;;;;;;;50.00;32.10;;;8.00;99.90;;;;;;5094003;28;20186;-76
2023/04/07 02:03:19;;;;;;;44.88;30.48;;;8.00;99.90;;;;;;5089141;28;20177;-75
2023/04/07 02:05:49;;;;;;;47.47;31.60;;;8.00;99.90;;;;;;5096366;28;20165;-75
2023/04/07 02:08:18;;;;;;;48.95;31.55;;;8.00;99.90;;;;;;5093244;28;20178;-75
2023/04/07 02:10:47;;;;;;;46.92;31.67;;;8.00;99.90;;;;;;5093724;28;20202;-75
2023/04/07 02:13:18;;;;;;;47.53;31.50;;;7.90;99.90;;;;;;5092967;28;20194;-75
2023/04/07 02:15:45;;;;;;;49.80;33.33;;;8.00;99.90;;;;;;5088035;28;20216;-75
2023/04/07 02:18:14;;;;;;;50.00;32.45;;;8.00;99.90;;;;;;5076615;28;20174;-77
2023/04/07 02:20:42;;;;;;;49.58;32.05;;;7.90;99.90;;;;;;5094913;28;20270;-75
2023/04/07 02:23:11;;;;;;;53.33;35.30;;;7.90;99.90;;;;;;5076555;28;20182;-76
2023/04/07 02:25:37;;;;;;;53.17;33.78;;;7.90;99.90;;;;;;5058536;28;20211;-76
2023/04/07 02:28:04;;;;;;;51.38;33.33;;;7.90;99.90;;;;;;5088794;28;20656;-80
2023/04/07 02:30:32;;;;;;;51.35;34.70;;;7.90;99.90;;;;;;5092445;28;20224;-75
2023/04/07 02:32:58;;;;;;;51.72;34.80;;;7.90;99.90;;;;;;5092246;28;20281;-75
2023/04/07 02:35:23;;;;;;;50.97;33.75;;;8.00;99.90;;;;;;5095025;28;20537;-76
2023/04/07 02:37:49;;;;;;;50.13;34.13;;;7.90;99.90;;;;;;5093003;28;20189;-75
2023/04/07 02:40:15;;;;;;;51.78;34.63;;;8.00;99.90;;;;;;5094164;28;20648;-75
2023/04/07 02:42:41;;;;;;;49.47;33.50;;;7.90;99.90;;;;;;5093430;28;20596;-75
2023/04/07 02:45:09;;;;;;;52.47;33.22;;;8.00;99.90;;;;;;5089891;28;20239;-76
2023/04/07 02:47:37;;;;;;;50.38;32.90;;;8.00;99.90;;;;;;5094330;28;20188;-75
2023/04/07 02:50:03;;;;;;;50.67;33.45;;;8.00;99.90;;;;;;5094952;28;20222;-76
2023/04/07 02:52:33;;;;;;;50.67;32.75;;;8.00;99.90;;;;;;5077037;28;20182;-76
2023/04/07 02:54:59;;;;;;;51.05;34.05;;;8.00;99.90;;;;;;5093681;28;20185;-75
2023/04/07 02:57:26;;;;;;;54.08;34.15;;;8.00;99.90;;;;;;5092449;28;20209;-75
2023/04/07 02:59:57;;;;;;;52.45;33.88;;;7.90;99.90;;;;;;5093735;28;20190;-75
2023/04/07 03:02:34;;;;;;;50.95;33.13;;;8.00;99.90;;;;;;5087665;28;20183;-75
2023/04/07 03:05:01;;;;;;;54.92;35.30;;;8.00;99.90;;;;;;5072965;28;20189;-75
2023/04/07 03:07:30;;;;;;;52.50;34.10;;;8.00;99.90;;;;;;5088240;28;20640;-75
2023/04/07 03:09:58;;;;;;;53.17;34.50;;;8.00;99.90;;;;;;5077189;28;20209;-75
2023/04/07 03:12:23;;;;;;;51.83;34.67;;;7.90;99.90;;;;;;5090741;28;20193;-76
2023/04/07 03:14:49;;;;;;;55.08;35.72;;;8.00;99.90;;;;;;5092932;28;20182;-79
2023/04/07 03:17:15;;;;;;;50.65;33.88;;;8.00;99.90;;;;;;5083208;28;20186;-75
2023/04/07 03:19:42;;;;;;;55.17;34.63;;;8.00;99.90;;;;;;5090521;28;20649;-75
2023/04/07 03:22:08;;;;;;;48.28;33.03;;;8.10;99.90;;;;;;5091145;28;20213;-75
2023/04/07 03:24:40;;;;;;;53.83;32.42;;;8.00;99.90;;;;;;5092501;28;20189;-77
2023/04/07 03:27:06;;;;;;;49.33;33.33;;;8.00;99.90;;;;;;5079332;28;20186;-75
2023/04/07 03:29:42;;;;;;;51.90;32.90;;;8.00;99.90;;;;;;5091828;28;20585;-76
2023/04/07 03:32:10;;;;;;;47.00;31.60;;;7.90;99.90;;;;;;5085256;28;20187;-80
2023/04/07 03:34:36;;;;;;;46.65;31.48;;;8.00;99.90;;;;;;5087668;28;20186;-74
2023/04/07 03:37:02;;;;;;;43.42;29.23;;;8.00;99.90;;;;;;5092187;28;20182;-76
2023/04/07 03:39:31;;;;;;;47.17;31.27;;;8.00;99.90;;;;;;5076096;28;20177;-75
2023/04/07 03:41:59;;;;;;;49.10;29.98;;;8.00;99.90;;;;;;5086284;28;20672;-75
2023/04/07 03:44:28;;;;;;;44.70;30.25;;;8.00;99.90;;;;;;5076849;28;20187;-78
2023/04/07 03:46:55;;;;;;;47.80;31.10;;;8.00;99.90;;;;;;5086814;28;20179;-75
2023/04/07 03:49:22;;;;;;;44.90;29.83;;;8.00;99.90;;;;;;5072679;28;20241;-75
2023/04/07 03:51:49;;;;;;;42.75;29.80;;;8.00;99.90;;;;;;5079501;28;20312;-75
2023/04/07 03:54:17;;;;;;;40.00;28.25;;;7.90;99.90;;;;;;5075644;28;20181;-75
2023/04/07 03:56:44;;;;;;;43.97;29.67;;;7.90;99.90;;;;;;5091404;28;20648;-75
2023/04/07 03:59:11;;;;;;;43.78;29.85;;;7.90;99.90;;;;;;5092709;28;20185;-76
2023/04/07 04:01:46;;;;;;;43.13;28.95;;;7.90;99.90;;;;;;5088601;28;20220;-77
2023/04/07 04:04:14;;;;;;;46.92;29.73;;;7.90;99.90;;;;;;5073638;28;20198;-76
2023/04/07 04:06:40;;;;;;;46.08;28.75;;;7.90;99.90;;;;;;5090202;28;20227;-75
2023/04/07 04:09:31;;;;;;;43.25;29.92;;;7.90;99.90;;;;;;5072004;28;20293;-74
2023/04/07 04:11:58;;;;;;;42.55;29.33;;;7.90;99.90;;;;;;5082962;28;20525;-82
2023/04/07 04:14:23;;;;;;;44.90;30.05;;;7.90;99.90;;;;;;5073946;28;20178;-75
2023/04/07 04:16:55;;;;;;;44.50;30.10;;;7.90;99.90;;;;;;5083392;28;20182;-80
2023/04/07 04:19:31;;;;;;;43.13;29.65;;;7.90;99.90;;;;;;5076358;28;20677;-76
2023/04/07 04:22:00;;;;;;;44.17;30.27;;;7.90;99.90;;;;;;5103115;28;20227;-76
2023/04/07 04:24:30;;;;;;;44.78;29.83;;;7.90;99.90;;;;;;5090357;28;20230;-75
2023/04/07 04:27:00;;;;;;;40.78;28.20;;;7.90;99.90;;;;;;5064272;28;20214;-76
2023/04/07 04:29:27;;;;;;;40.80;27.77;;;7.90;99.90;;;;;;5092172;28;20236;-74
2023/04/07 04:31:54;;;;;;;43.55;28.67;;;7.90;99.90;;;;;;5083332;28;20190;-75
2023/04/07 04:34:20;;;;;;;39.60;27.33;;;7.90;99.90;;;;;;5083679;28;20185;-74
2023/04/07 04:36:48;;;;;;;40.42;27.27;;;7.90;99.90;;;;;;5060255;28;20728;-74
2023/04/07 04:39:16;;;;;;;41.45;27.42;;;7.80;99.90;;;;;;5091576;28;20186;-74
2023/04/07 04:41:42;;;;;;;42.90;26.77;;;7.90;99.90;;;;;;5086819;28;20212;-74
2023/04/07 04:44:11;;;;;;;39.17;25.88;;;7.90;99.90;;;;;;5072140;28;20193;-74
2023/04/07 04:46:39;;;;;;;38.22;26.25;;;7.90;99.90;;;;;;5083788;28;20179;-74
2023/04/07 04:49:05;;;;;;;37.30;25.08;;;7.80;99.90;;;;;;5089388;28;20189;-74
2023/04/07 04:51:32;;;;;;;36.28;25.15;;;7.90;99.90;;;;;;5084008;28;20233;-75
2023/04/07 04:54:05;;;;;;;35.88;24.75;;;7.80;99.90;;;;;;5088641;28;20186;-75
2023/04/07 04:56:32;;;;;;;34.92;24.42;;;7.80;99.90;;;;;;5091292;28;20235;-75
2023/04/07 04:58:58;;;;;;;34.42;24.13;;;7.90;99.90;;;;;;5091469;28;20178;-75
2023/04/07 05:01:33;;;;;;;37.88;25.55;;;7.90;99.90;;;;;;5081272;28;20185;-75
2023/04/07 05:04:05;;;;;;;39.53;24.45;;;7.90;99.90;;;;;;5089062;28;20177;-75
2023/04/07 05:06:31;;;;;;;37.63;25.67;;;7.80;99.90;;;;;;5088675;28;20665;-75
2023/04/07 05:09:02;;;;;;;35.75;24.92;;;7.80;99.90;;;;;;5090794;28;20610;-74
2023/04/07 05:11:35;;;;;;;37.38;25.70;;;7.90;99.90;;;;;;5086940;28;20713;-75
2023/04/07 05:14:01;;;;;;;35.05;24.15;;;7.90;99.90;;;;;;5089704;28;20273;-75
2023/04/07 05:16:27;;;;;;;41.08;25.65;;;7.90;99.90;;;;;;5082404;28;20186;-77
2023/04/07 05:18:54;;;;;;;38.75;25.80;;;7.90;99.90;;;;;;5079546;28;20632;-74
2023/04/07 05:21:20;;;;;;;41.25;25.95;;;7.90;99.90;;;;;;5088185;28;20190;-75
2023/04/07 05:23:47;;;;;;;41.88;26.25;;;7.90;99.90;;;;;;5075160;28;20376;-74
2023/04/07 05:26:13;;;;;;;37.08;25.48;;;7.90;99.90;;;;;;5090777;28;20705;-75
2023/04/07 05:28:39;;;;;;;36.17;24.77;;;7.90;99.90;;;;;;5091062;28;20282;-75
2023/04/07 05:31:12;;;;;;;37.40;25.13;;;7.90;99.90;;;;;;5074179;28;20218;-75
2023/04/07 05:33:38;;;;;;;37.50;25.13;;;7.90;99.90;;;;;;5085683;28;20204;-76
2023/04/07 05:36:04;;;;;;;37.03;24.52;;;7.90;99.90;;;;;;5079069;28;20189;-74
2023/04/07 05:38:32;;;;;;;37.35;24.98;;;7.90;99.90;;;;;;5090470;28;20277;-76
2023/04/07 05:41:04;;;;;;;37.88;25.63;;;7.90;99.90;;;;;;5075112;28;20177;-76
2023/04/07 05:43:33;;;;;;;36.90;25.48;;;8.00;99.90;;;;;;5090210;28;20701;-73
2023/04/07 05:45:59;;;;;;;39.30;25.65;;;7.90;99.90;;;;;;5071890;28;20186;-75
2023/04/07 05:48:25;;;;;;;35.42;25.25;;;7.90;99.90;;;;;;5086411;28;20185;-75
2023/04/07 05:50:53;;;;;;;35.50;23.95;;;8.00;99.90;;;;;;5053187;28;20220;-74
2023/04/07 05:53:19;;;;;;;37.58;25.27;;;7.90;99.90;;;;;;5070015;28;20251;-74
2023/04/07 05:55:45;;;;;;;40.17;26.08;;;7.90;99.90;;;;;;5087867;28;20270;-74
2023/04/07 05:58:20;;;;;;;40.22;26.13;;;7.90;99.90;;;;;;5084245;28;20652;-75
2023/04/07 06:00:49;;;;;;;37.85;25.92;;;7.90;99.90;;;;;;5083843;28;20664;-74
2023/04/07 06:03:17;;;;;;;38.40;25.45;;;7.90;99.90;;;;;;5069002;28;20175;-75
2023/04/07 06:06:02;;;;;;;35.28;24.83;;;8.00;99.90;;;;;;5087098;28;20193;-75
2023/04/07 06:08:28;;;;;;;35.17;24.35;;;7.90;99.90;;;;;;5087918;28;20541;-75
2023/04/07 06:10:55;;;;;;;36.63;25.27;;;8.00;99.90;;;;;;5085227;28;20202;-74
2023/04/07 06:13:21;;;;;;;38.65;24.55;;;8.00;99.90;;;;;;5087333;28;20283;-75
2023/04/07 06:15:46;;;;;;;39.40;24.88;;;8.00;99.90;;;;;;5072868;28;20353;-75
2023/04/07 06:18:12;;;;;;;34.40;24.55;;;8.00;99.90;;;;;;5084540;28;20282;-75
2023/04/07 06:20:38;;;;;;;35.75;24.75;;;8.00;99.90;;;;;;5072872;28;20182;-75
2023/04/07 06:23:05;;;;;;;37.50;25.25;;;8.00;99.90;;;;;;5087856;28;20191;-76
2023/04/07 06:25:31;;;;;;;39.47;24.55;;;8.00;99.90;;;;;;5088031;28;20268;-75
2023/04/07 06:28:00;;;;;;;38.70;24.52;;;8.00;99.90;;;;;;5088357;28;20184;-76
2023/04/07 06:30:26;;;;;;;39.30;24.73;;;8.10;99.90;;;;;;5085559;28;20241;-76
2023/04/07 06:32:52;;;;;;;33.13;23.33;;;8.10;99.90;;;;;;5093227;28;20544;-75
2023/04/07 06:35:18;;;;;;;32.85;22.90;;;8.10;99.90;;;;;;5086190;28;20214;-75
2023/04/07 06:37:44;;;;;;;35.47;23.15;;;8.20;99.90;;;;;;5091840;28;20182;-75
2023/04/07 06:40:10;;;;;;;38.50;22.77;;;8.10;99.90;;;;;;5083731;28;20624;-75
2023/04/07 06:42:36;;;;;;;33.55;23.27;;;8.10;99.90;;;;;;5088419;28;20182;-76
2023/04/07 06:45:10;;;;;;;35.25;23.95;;;8.10;99.90;;;;;;5088053;28;20184;-74
2023/04/07 06:47:37;;;;;;;32.03;22.83;;;8.20;99.90;;;;;;5091058;28;20276;-74
2023/04/07 06:50:03;;;;;;;36.97;23.48;;;8.20;99.90;;;;;;5087406;28;20294;-74
2023/04/07 06:52:29;;;;;;;34.35;23.35;;;8.20;99.90;;;;;;5086834;28;20708;-74
2023/04/07 06:54:55;;;;;;;35.95;24.20;;;8.20;99.90;;;;;;5087177;28;20190;-74
2023/04/07 06:57:21;;;;;;;37.53;25.60;;;8.20;99.90;;;;;;5084716;28;20174;-74
2023/04/07 06:59:47;;;;;;;38.10;24.33;;;8.30;99.90;;;;;;5085642;28;20182;-78
2023/04/07 07:02:13;;;;;;;37.35;23.77;;;8.30;99.90;;;;;;5086631;28;20265;-74
2023/04/07 07:04:38;;;;;;;36.83;24.02;;;8.40;99.90;;;;;;5089133;28;20307;-75
2023/04/07 07:07:04;;;;;;;34.38;23.77;;;8.40;99.90;;;;;;5085449;28;20247;-75
2023/04/07 07:09:30;;;;;;;33.95;23.77;;;8.50;99.90;;;;;;5086824;28;20221;-75
2023/04/07 07:11:56;;;;;;;34.78;23.52;;;8.50;99.90;;;;;;5085489;28;20184;-75
2023/04/07 07:14:22;;;;;;;33.72;24.10;;;8.60;99.90;;;;;;5081420;28;20174;-75
2023/04/07 07:16:48;;;;;;;34.28;23.83;;;8.60;99.90;;;;;;5082593;28;20543;-75
2023/04/07 07:19:13;;;;;;;34.28;24.08;;;8.70;99.90;;;;;;5087173;28;20182;-74
2023/04/07 07:21:39;;;;;;;34.22;22.92;;;8.70;99.90;;;;;;5087254;28;20170;-74
2023/04/07 07:24:05;;;;;;;33.60;22.73;;;8.70;99.90;;;;;;5086333;28;20268;-76
2023/04/07 07:26:31;;;;;;;32.50;22.70;;;8.70;99.90;;;;;;5091594;28;20284;-73
2023/04/07 07:28:57;;;;;;;30.70;21.55;;;8.70;99.90;;;;;;5091766;28;20702;-74
2023/04/07 07:31:23;;;;;;;31.85;21.90;;;8.80;99.90;;;;;;5091877;28;20200;-73
2023/04/07 07:33:50;;;;;;;33.28;22.15;;;8.80;99.90;;;;;;5094466;28;20205;-73
2023/04/07 07:36:16;;;;;;;31.67;22.58;;;8.80;99.90;;;;;;5092022;28;20577;-74
2023/04/07 07:38:42;;;;;;;33.20;22.08;;;8.80;99.90;;;;;;5075898;28;20190;-75
2023/04/07 07:41:08;;;;;;;30.88;21.90;;;8.80;99.90;;;;;;5093503;28;20197;-77
2023/04/07 07:43:33;;;;;;;31.88;22.23;;;8.80;99.90;;;;;;5093154;28;20173;-74
2023/04/07 07:45:59;;;;;;;29.30;21.00;;;8.90;99.90;;;;;;5092204;28;20186;-73
2023/04/07 07:48:25;;;;;;;29.55;20.60;;;8.90;99.90;;;;;;5060663;28;20303;-75
2023/04/07 07:50:51;;;;;;;30.02;20.50;;;8.90;99.90;;;;;;5072688;28;20911;-74
2023/04/07 07:53:17;;;;;;;31.80;21.48;;;8.90;99.90;;;;;;5074956;28;20579;-74
2023/04/07 07:55:44;;;;;;;29.85;20.48;;;8.90;99.90;;;;;;5075517;28;20242;-74
2023/04/07 07:58:10;;;;;;;29.52;20.40;;;8.90;99.90;;;;;;5092507;28;20269;-74
2023/04/07 08:00:35;;;;;;;27.63;20.35;;;8.90;99.90;;;;;;5090892;28;20285;-74
2023/04/07 08:03:02;;;;;;;30.65;20.10;;;9.00;99.90;;;;;;5088078;28;20276;-74
2023/04/07 08:05:28;;;;;;;30.88;21.10;;;9.00;99.90;;;;;;5075669;28;20187;-73
2023/04/07 08:07:54;;;;;;;27.20;20.15;;;9.00;99.90;;;;;;5086324;28;20200;-73
2023/04/07 08:10:20;;;;;;;27.23;19.48;;;9.00;99.90;;;;;;5093723;28;20309;-74
2023/04/07 08:12:46;;;;;;;31.50;20.83;;;9.00;99.90;;;;;;5079566;28;20210;-75
2023/04/07 08:15:12;;;;;;;26.45;19.15;;;9.00;99.90;;;;;;5073567;28;20650;-74
2023/04/07 08:17:38;;;;;;;29.17;20.38;;;9.00;99.90;;;;;;5076956;28;20189;-74
2023/04/07 08:20:05;;;;;;;29.77;20.33;;;9.00;99.90;;;;;;5089817;28;20178;-74
2023/04/07 08:22:31;;;;;;;29.20;20.92;;;9.10;99.90;;;;;;5084824;28;20194;-73
2023/04/07 08:24:57;;;;;;;29.83;21.10;;;9.00;99.90;;;;;;5086850;28;20608;-74
2023/04/07 08:27:23;;;;;;;27.98;19.63;;;9.10;99.90;;;;;;5089263;28;20189;-74
2023/04/07 08:29:59;;;;;;;29.20;20.48;;;9.10;99.90;;;;;;5087910;28;20316;-74
2023/04/07 08:32:32;;;;;;;27.63;20.02;;;9.10;99.90;;;;;;5081398;28;20218;-74
2023/04/07 08:34:58;;;;;;;30.05;21.52;;;9.10;99.90;;;;;;5093159;28;20204;-73
2023/04/07 08:37:24;;;;;;;30.05;21.23;;;9.20;99.90;;;;;;5091221;28;20202;-74
2023/04/07 08:39:49;;;;;;;31.67;22.38;;;9.20;99.90;;;;;;5092308;28;20190;-73
2023/04/07 08:42:17;;;;;;;31.38;22.67;;;9.20;99.90;;;;;;5091233;28;20579;-74
2023/04/07 08:44:45;;;;;;;32.85;23.45;;;9.20;99.90;;;;;;5091999;28;20190;-74
2023/04/07 08:47:11;;;;;;;35.47;25.23;;;9.30;99.90;;;;;;5090958;28;20645;-73
2023/04/07 08:49:40;;;;;;;41.50;29.23;;;9.30;99.90;;;;;;5081076;28;20222;-75
2023/04/07 08:52:10;;;;;;;44.97;29.30;;;9.40;99.90;;;;;;5078472;28;20217;-74
2023/04/07 08:54:37;;;;;;;41.03;28.48;;;9.40;99.90;;;;;;5092457;28;20245;-74
2023/04/07 08:57:03;;;;;;;41.25;28.80;;;9.50;99.90;;;;;;5091321;28;20209;-74
2023/04/07 08:59:32;;;;;;;43.45;28.35;;;9.50;99.90;;;;;;5092961;28;20213;-74
2023/04/07 09:01:58;;;;;;;40.38;29.27;;;9.60;99.90;;;;;;5091219;28;20182;-74
2023/04/07 09:04:26;;;;;;;42.45;29.77;;;9.70;99.90;;;;;;5092917;28;20280;-74
2023/04/07 09:06:52;;;;;;;40.15;28.92;;;9.70;99.90;;;;;;5090242;28;20185;-74
2023/04/07 09:09:17;;;;;;;44.30;28.65;;;9.90;99.90;;;;;;5080902;28;20499;-75
2023/04/07 09:11:43;;;;;;;42.50;29.15;;;10.00;99.90;;;;;;5075544;28;20668;-74
2023/04/07 09:14:09;;;;;;;40.25;28.45;;;10.10;99.90;;;;;;5092794;28;20185;-74
2023/04/07 09:16:35;;;;;;;37.47;27.52;;;10.30;99.90;;;;;;5080850;28;20188;-74
2023/04/07 09:19:01;;;;;;;40.83;26.33;;;10.50;99.90;;;;;;5092398;28;20253;-74
2023/04/07 09:21:50;;;;;;;36.78;26.40;;;10.60;99.90;;;;;;5083862;28;20637;-75
2023/04/07 09:24:27;;;;;;;33.45;24.63;;;10.80;99.90;;;;;;5075798;28;20314;-77
2023/04/07 09:27:15;;;;;;;34.03;24.33;;;11.20;99.90;;;;;;5090195;28;20839;-76
2023/04/07 09:29:43;;;;;;;32.70;22.95;;;11.30;99.90;;;;;;5086633;28;20288;-80
2023/04/07 09:32:09;;;;;;;31.65;22.35;;;11.40;99.90;;;;;;5082074;28;20698;-76
2023/04/07 09:34:37;;;;;;;35.58;21.35;;;11.40;99.90;;;;;;5083426;28;20171;-76
2023/04/07 09:37:06;;;;;;;29.00;20.92;;;11.50;99.90;;;;;;5085417;28;20315;-76
2023/04/07 09:39:32;;;;;;;34.13;21.45;;;11.40;99.90;;;;;;5087511;28;20736;-76
2023/04/07 09:41:58;;;;;;;29.10;20.48;;;11.30;99.90;;;;;;5088768;28;20186;-76
2023/04/07 09:44:24;;;;;;;27.02;19.58;;;11.20;99.90;;;;;;5089154;28;20235;-76
2023/04/07 09:46:55;;;;;;;25.95;18.77;;;11.20;99.90;;;;;;5089579;28;20185;-76
2023/04/07 09:49:22;;;;;;;29.20;20.23;;;11.10;99.90;;;;;;5090800;28;20274;-77
2023/04/07 09:52:03;;;;;;;26.20;18.67;;;11.00;99.90;;;;;;5088916;28;20233;-80
2023/04/07 09:54:36;;;;;;;26.85;17.95;;;10.90;99.90;;;;;;5087586;28;20184;-76
2023/04/07 09:57:04;;;;;;;23.30;16.85;;;10.90;99.90;;;;;;5087952;28;20220;-76
2023/04/07 09:59:31;;;;;;;25.77;17.67;;;10.80;99.90;;;;;;5084313;28;20192;-76
2023/04/07 10:01:57;;;;;;;23.88;16.98;;;10.80;99.90;;;;;;5084809;28;20596;-75
2023/04/07 10:04:26;;;;;;;22.83;17.23;;;10.80;99.90;;;;;;5092608;28;20181;-77
2023/04/07 10:06:57;;;;;;;17.95;12.95;;;10.90;99.90;;;;;;5094189;28;20651;-76
2023/04/07 10:09:25;;;;;;;18.05;13.15;;;10.90;99.90;;;;;;5094265;28;20271;-75
2023/04/07 10:11:52;;;;;;;18.33;13.45;;;10.90;99.90;;;;;;5093178;28;20192;-75
2023/04/07 10:14:20;;;;;;;20.70;13.00;;;10.90;99.90;;;;;;5096595;28;20250;-74
2023/04/07 10:16:46;;;;;;;17.77;13.10;;;10.90;99.90;;;;;;5094952;28;20186;-74
2023/04/07 10:19:13;;;;;;;16.33;12.90;;;11.00;99.90;;;;;;5084147;28;20216;-74
2023/04/07 10:21:43;;;;;;;18.63;13.52;;;11.10;99.90;;;;;;5078519;28;20297;-75
2023/04/07 10:24:40;;;;;;;18.38;13.30;;;11.30;99.90;;;;;;5097043;28;20193;-74
2023/04/07 10:27:10;;;;;;;18.70;14.20;;;11.60;99.90;;;;;;5083183;28;20265;-75
2023/04/07 10:29:41;;;;;;;20.95;14.40;;;11.80;99.90;;;;;;5095969;28;20198;-75
2023/04/07 10:32:07;;;;;;;20.10;14.43;;;11.80;99.90;;;;;;5091639;28;20181;-78
2023/04/07 10:34:57;;;;;;;20.13;14.63;;;11.80;99.90;;;;;;5075514;28;20185;-76
2023/04/07 10:37:24;;;;;;;18.90;14.45;;;11.80;99.90;;;;;;5084740;28;20273;-75
2023/04/07 10:40:18;;;;;;;20.65;15.10;;;11.80;99.90;;;;;;5095291;28;20177;-75
2023/04/07 10:42:47;;;;;;;19.38;15.40;;;11.70;99.90;;;;;;5092203;28;20178;-75
2023/04/07 10:45:13;;;;;;;21.23;16.00;;;11.80;99.90;;;;;;5094360;28;20255;-75
2023/04/07 10:47:57;;;;;;;21.90;15.85;;;11.90;99.90;;;;;;5093651;28;20186;-75
2023/04/07 10:50:24;;;;;;;22.65;16.65;;;11.90;99.90;;;;;;5094148;28;20285;-76
2023/04/07 10:53:06;;;;;;;24.83;15.25;;;12.00;99.90;;;;;;5090439;28;20253;-78
2023/04/07 10:55:34;;;;;;;20.85;14.93;;;12.00;99.90;;;;;;5095762;28;20174;-75
2023/04/07 10:58:14;;;;;;;21.65;16.20;;;12.00;99.90;;;;;;5079520;28;20218;-75
2023/04/07 11:00:40;;;;;;;21.08;15.45;;;12.10;99.90;;;;;;5074827;28;20170;-75
2023/04/07 11:03:12;;;;;;;23.85;15.15;;;12.20;99.90;;;;;;5070380;28;20185;-75
2023/04/07 11:05:41;;;;;;;22.50;14.40;;;12.20;99.90;;;;;;5094895;28;20174;-78
2023/04/07 11:08:07;;;;;;;19.25;13.85;;;12.20;99.90;;;;;;5077866;28;20178;-77
2023/04/07 11:10:34;;;;;;;19.30;14.80;;;12.30;99.90;;;;;;5074727;28;20289;-77
2023/04/07 11:13:05;;;;;;;20.98;14.38;;;12.30;99.90;;;;;;5088715;28;20186;-76
2023/04/07 11:15:33;;;;;;;20.48;13.35;;;12.30;99.90;;;;;;5086543;28;20265;-75
2023/04/07 11:18:15;;;;;;;18.65;13.30;;;12.40;99.90;;;;;;5074167;28;20292;-77
2023/04/07 11:20:52;;;;;;;17.73;12.65;;;12.40;99.90;;;;;;5093433;28;20214;-75
2023/04/07 11:23:20;;;;;;;16.48;12.32;;;12.50;99.90;;;;;;5088375;28;20178;-75
2023/04/07 11:25:49;;;;;;;16.63;11.88;;;12.50;99.90;;;;;;5093439;28;20193;-75
2023/04/07 11:28:15;;;;;;;16.15;11.20;;;12.60;99.90;;;;;;5076283;28;20199;-74
2023/04/07 11:30:50;;;;;;;14.70;11.02;;;12.70;99.90;;;;;;5092135;28;20305;-76
2023/04/07 11:33:27;;;;;;;14.20;9.93;;;12.80;99.90;;;;;;5075939;28;20555;-75
2023/04/07 11:36:01;;;;;;;15.70;10.45;;;12.80;99.90;;;;;;5093236;28;20185;-75
2023/04/07 11:38:37;;;;;;;13.52;11.02;;;12.70;99.90;;;;;;5087621;28;20178;-75
2023/04/07 11:41:11;;;;;;;14.60;10.70;;;12.70;99.90;;;;;;5072748;28;20533;-75
2023/04/07 11:43:40;;;;;;;14.70;10.65;;;12.70;99.90;;;;;;5093965;28;20269;-75
2023/04/07 11:46:07;;;;;;;13.40;10.30;;;12.80;99.90;;;;;;5088954;28;20217;-80
2023/04/07 11:48:34;;;;;;;13.25;10.40;;;12.80;99.90;;;;;;5092910;28;20194;-75
2023/04/07 11:51:01;;;;;;;12.00;9.70;;;12.80;99.90;;;;;;5093507;28;20289;-77
2023/04/07 11:53:39;;;;;;;14.07;10.30;;;12.90;99.90;;;;;;5089698;28;20221;-76
2023/04/07 11:56:17;;;;;;;13.35;10.43;;;12.90;99.90;;;;;;5093373;28;20200;-79
2023/04/07 11:58:50;;;;;;;14.38;10.65;;;12.90;99.90;;;;;;5073728;28;20182;-77
2023/04/07 12:01:16;;;;;;;12.52;10.32;;;13.00;99.90;;;;;;5076951;28;20182;-76
2023/04/07 12:04:03;;;;;;;14.90;9.90;;;13.20;99.90;;;;;;5092779;28;20204;-75
2023/04/07 12:06:33;;;;;;;14.70;9.90;;;13.40;99.90;;;;;;5090309;28;20637;-74
2023/04/07 12:09:02;;;;;;;15.40;10.30;;;13.60;99.90;;;;;;5092878;28;20264;-75
2023/04/07 12:11:29;;;;;;;13.95;10.27;;;13.70;99.90;;;;;;5090627;28;20209;-74
2023/04/07 12:13:55;;;;;;;12.85;9.65;;;13.80;99.90;;;;;;5092900;28;20202;-75
2023/04/07 12:16:22;;;;;;;12.75;10.00;;;13.80;99.90;;;;;;5082118;28;20186;-76
2023/04/07 12:18:48;;;;;;;12.90;10.15;;;13.90;99.90;;;;;;5073367;28;20269;-75
2023/04/07 12:21:14;;;;;;;13.32;10.30;;;13.80;99.90;;;;;;5072884;28;20614;-75
2023/04/07 12:23:40;;;;;;;15.90;11.23;;;13.80;99.90;;;;;;5091392;28;20205;-75
2023/04/07 12:26:06;;;;;;;17.88;11.55;;;13.80;99.90;;;;;;5093152;28;20173;-78
2023/04/07 12:28:32;;;;;;;14.70;10.60;;;13.70;99.90;;;;;;5088279;28;20272;-75
2023/04/07 12:30:59;;;;;;;14.95;11.38;;;13.60;99.90;;;;;;5092357;28;20306;-76
2023/04/07 12:33:24;;;;;;;13.43;11.10;;;13.60;99.90;;;;;;5088640;28;20186;-76
2023/04/07 12:35:51;;;;;;;14.95;10.75;;;13.60;99.90;;;;;;5073402;28;20183;-75
2023/04/07 12:38:16;;;;;;;18.05;11.10;;;13.50;99.90;;;;;;5087186;28;20182;-75
2023/04/07 12:40:42;;;;;;;14.05;10.55;;;13.40;99.90;;;;;;5076547;28;20186;-76